Terminal Aerodrome Forecast
Issued by NWS

Home | Current Version | Previous Version | Text Only | Print | Product List | Glossary On
Versions: 1 2 3 4 5 6 7 8 9 10 11 12 13 14 15 16 17 18 19 20
000
FTUS46 KSEW 240114 AAA
TAFHQM
TAF AMD
KHQM 240114Z 2401/2424 24010KT 2SM BR OVC003
     FM241500 24005KT P6SM OVC015
     FM241800 24009KT P6SM BKN025
     FM242100 25012KT P6SM BKN050=

USA.gov is the U.S. government's official web portal to all federal, state and local government web resources and services.